createdAt,value
2016-12-27T00:00:33.755Z,4.1
2016-12-27T00:01:36.703Z,4.1
2016-12-27T00:02:40.156Z,4.1
2016-12-27T00:03:43.107Z,4.1
2016-12-27T00:04:46.560Z,4
2016-12-27T00:05:49.505Z,4.1
2016-12-27T00:06:52.951Z,4
2016-12-27T00:07:55.895Z,4
2016-12-27T00:08:59.346Z,4
2016-12-27T00:10:02.800Z,4
2016-12-27T00:11:05.754Z,4
2016-12-27T00:12:09.207Z,4.1
2016-12-27T00:13:12.157Z,4.1
2016-12-27T00:14:15.612Z,4.1
2016-12-27T00:15:18.557Z,4
2016-12-27T00:16:22.010Z,4
2016-12-27T00:17:24.956Z,4
2016-12-27T00:18:28.413Z,4
2016-12-27T00:19:31.360Z,4
2016-12-27T00:20:34.811Z,4
2016-12-27T00:21:37.763Z,4
2016-12-27T00:22:41.217Z,4
2016-12-27T00:23:44.168Z,4
2016-12-27T00:24:47.619Z,4
2016-12-27T00:25:51.066Z,4
2016-12-27T00:26:54.013Z,4
2016-12-27T00:27:57.464Z,4
2016-12-27T00:29:00.410Z,4
2016-12-27T00:30:03.867Z,4
2016-12-27T00:31:06.812Z,4
2016-12-27T00:32:10.261Z,4
2016-12-27T00:33:13.206Z,4
2016-12-27T00:34:16.656Z,4
2016-12-27T00:35:19.604Z,4
2016-12-27T00:36:23.188Z,4
2016-12-27T00:37:26.135Z,4
2016-12-27T00:39:32.521Z,4
2016-12-27T00:40:35.974Z,4
2016-12-27T00:41:38.920Z,4
2016-12-27T00:42:42.369Z,4
2016-12-27T00:43:45.326Z,4
2016-12-27T00:44:48.788Z,4
2016-12-27T00:45:51.739Z,4
2016-12-27T00:46:55.193Z,3.9
2016-12-27T00:47:58.147Z,3.9
2016-12-27T00:49:01.598Z,3.9
2016-12-27T00:50:05.047Z,3.9
2016-12-27T00:51:07.998Z,4
2016-12-27T00:52:11.446Z,3.9
2016-12-27T00:53:14.394Z,3.8
2016-12-27T00:54:17.842Z,3.9
2016-12-27T00:55:20.793Z,3.9
2016-12-27T00:56:24.247Z,3.9
2016-12-27T00:57:27.192Z,3.9
2016-12-27T00:58:30.642Z,3.9
2016-12-27T00:59:33.589Z,3.9
2016-12-27T01:00:37.040Z,3.9
2016-12-27T01:01:39.982Z,3.9
2016-12-27T01:02:43.429Z,3.9
2016-12-27T01:03:46.382Z,3.9
2016-12-27T01:04:49.840Z,4
2016-12-27T01:05:53.294Z,3.9
2016-12-27T01:06:56.244Z,3.8
2016-12-27T01:07:59.690Z,3.8
2016-12-27T01:09:02.637Z,3.9
2016-12-27T01:10:06.100Z,3.9
2016-12-27T01:11:09.050Z,3.8
2016-12-27T01:12:12.501Z,3.8
2016-12-27T01:13:15.447Z,3.8
2016-12-27T01:14:18.900Z,3.8
2016-12-27T01:15:21.847Z,3.8
2016-12-27T01:16:25.297Z,3.8
2016-12-27T01:17:28.248Z,3.8
2016-12-27T01:18:31.702Z,3.8
2016-12-27T01:19:34.652Z,3.8
2016-12-27T01:20:38.128Z,3.8
2016-12-27T01:21:41.081Z,3.8
2016-12-27T01:22:44.561Z,3.8
2016-12-27T01:23:47.508Z,3.8
2016-12-27T01:24:50.958Z,3.8
2016-12-27T01:25:53.910Z,3.8
2016-12-27T01:26:57.359Z,3.8
2016-12-27T01:28:00.809Z,3.8
2016-12-27T01:29:03.757Z,3.8
2016-12-27T01:30:07.205Z,3.8
2016-12-27T01:31:10.157Z,3.8
2016-12-27T01:32:13.611Z,3.8
2016-12-27T01:33:16.557Z,3.7
2016-12-27T01:34:20.007Z,3.8
2016-12-27T01:35:22.954Z,3.8
2016-12-27T01:36:26.427Z,3.8
2016-12-27T01:37:29.369Z,3.8
2016-12-27T01:38:32.822Z,3.8
2016-12-27T01:39:35.768Z,3.8
2016-12-27T01:40:39.218Z,3.8
2016-12-27T01:41:42.164Z,3.8
2016-12-27T01:42:45.611Z,3.8
2016-12-27T01:43:48.701Z,3.8
2016-12-27T01:44:52.179Z,3.8
2016-12-27T01:45:55.125Z,3.8
2016-12-27T01:46:58.576Z,3.8
2016-12-27T01:48:01.527Z,3.8
2016-12-27T01:49:04.984Z,3.8
2016-12-27T01:50:07.931Z,3.8
2016-12-27T01:51:11.378Z,3.8
2016-12-27T01:52:14.592Z,3.8
2016-12-27T01:53:17.540Z,3.8
2016-12-27T01:54:20.993Z,3.7
2016-12-27T01:55:23.941Z,3.8
2016-12-27T01:56:27.415Z,3.8
2016-12-27T01:57:30.362Z,3.8
2016-12-27T01:58:33.806Z,3.7
2016-12-27T02:00:40.165Z,3.8
2016-12-27T02:02:46.528Z,3.8
2016-12-27T02:03:49.980Z,3.8
2016-12-27T02:04:52.947Z,3.8
2016-12-27T02:05:56.403Z,3.8
2016-12-27T02:06:59.358Z,3.8
2016-12-27T02:08:02.809Z,3.8
2016-12-27T02:09:05.754Z,3.8
2016-12-27T02:10:09.210Z,3.8
2016-12-27T02:11:12.166Z,3.8
2016-12-27T02:12:15.614Z,3.8
2016-12-27T02:13:19.087Z,3.8
2016-12-27T02:14:22.035Z,3.8
2016-12-27T02:15:25.490Z,3.8
2016-12-27T02:16:28.432Z,3.8
2016-12-27T02:17:31.883Z,3.8
2016-12-27T02:18:34.829Z,3.7
2016-12-27T02:19:38.279Z,3.8
2016-12-27T02:20:41.228Z,3.8
2016-12-27T02:21:44.677Z,3.8
2016-12-27T02:22:47.625Z,3.8
2016-12-27T02:23:51.073Z,3.7
2016-12-27T02:24:54.018Z,3.7
2016-12-27T02:25:57.470Z,3.7
2016-12-27T02:27:00.419Z,3.7
2016-12-27T02:28:03.871Z,3.7
2016-12-27T02:29:07.320Z,3.8
2016-12-27T02:30:10.269Z,3.7
2016-12-27T02:31:13.720Z,3.7
2016-12-27T02:32:16.694Z,3.7
2016-12-27T02:33:20.165Z,3.7
2016-12-27T02:34:23.120Z,3.8
2016-12-27T02:35:26.566Z,3.8
2016-12-27T02:36:29.513Z,3.8
2016-12-27T02:37:32.965Z,3.8
2016-12-27T02:38:35.914Z,3.8
2016-12-27T02:39:39.362Z,3.8
2016-12-27T02:40:42.374Z,3.7
2016-12-27T02:41:45.831Z,3.8
2016-12-27T02:42:48.774Z,3.8
2016-12-27T02:43:52.222Z,3.8
2016-12-27T02:44:55.166Z,3.8
2016-12-27T02:45:58.620Z,3.8
2016-12-27T02:47:01.573Z,3.8
2016-12-27T02:48:05.035Z,3.7
2016-12-27T02:49:08.484Z,3.8
2016-12-27T02:50:11.437Z,3.8
2016-12-27T02:51:14.895Z,3.8
2016-12-27T02:52:17.844Z,3.7
2016-12-27T02:53:21.291Z,3.7
2016-12-27T02:54:24.239Z,3.7
2016-12-27T02:55:27.688Z,3.7
2016-12-27T02:56:30.636Z,3.7
2016-12-27T02:57:34.090Z,3.7
2016-12-27T02:58:37.041Z,3.7
2016-12-27T02:59:40.494Z,3.7
2016-12-27T03:00:43.439Z,3.7
2016-12-27T03:01:47.024Z,3.7
2016-12-27T03:02:49.982Z,3.7
2016-12-27T03:03:53.429Z,3.6
2016-12-27T03:04:56.371Z,3.6
2016-12-27T03:05:59.817Z,3.7
2016-12-27T03:07:02.764Z,3.6
2016-12-27T03:09:09.628Z,3.7
2016-12-27T03:10:12.574Z,3.7
2016-12-27T03:11:16.023Z,3.7
2016-12-27T03:12:18.966Z,3.7
2016-12-27T03:13:22.416Z,3.7
2016-12-27T03:14:25.362Z,3.7
2016-12-27T03:15:28.818Z,3.8
2016-12-27T03:16:31.770Z,3.8
2016-12-27T03:17:35.215Z,3.8
2016-12-27T03:18:38.168Z,3.8
2016-12-27T03:19:41.614Z,3.8
2016-12-27T03:20:44.585Z,3.8
2016-12-27T03:21:48.035Z,3.8
2016-12-27T03:22:51.482Z,3.8
2016-12-27T03:23:54.425Z,3.8
2016-12-27T03:24:57.878Z,3.8
2016-12-27T03:26:00.959Z,3.8
2016-12-27T03:27:03.907Z,3.8
2016-12-27T03:28:07.359Z,3.8
2016-12-27T03:29:10.307Z,3.8
2016-12-27T03:30:13.753Z,3.8
2016-12-27T03:31:17.228Z,3.7
2016-12-27T03:32:20.175Z,3.8
2016-12-27T03:33:23.624Z,3.7
2016-12-27T03:34:26.566Z,3.7
2016-12-27T03:35:30.016Z,3.8
2016-12-27T03:36:32.970Z,3.8
2016-12-27T03:37:36.551Z,3.7
2016-12-27T03:38:39.498Z,3.7
2016-12-27T03:39:42.943Z,3.7
2016-12-27T03:40:45.887Z,3.8
2016-12-27T03:41:49.333Z,3.8
2016-12-27T03:42:52.276Z,3.8
2016-12-27T03:43:55.724Z,3.8
2016-12-27T03:44:58.666Z,3.8
2016-12-27T03:46:02.113Z,3.8
2016-12-27T03:47:05.064Z,3.7
2016-12-27T03:49:11.928Z,3.7
2016-12-27T03:50:14.875Z,3.8
2016-12-27T03:51:18.332Z,3.8
2016-12-27T03:52:21.279Z,3.8
2016-12-27T03:53:24.728Z,3.8
2016-12-27T03:54:27.677Z,3.7
2016-12-27T03:55:31.126Z,3.7
2016-12-27T03:56:34.077Z,3.6
2016-12-27T03:57:37.525Z,3.7
2016-12-27T03:58:40.467Z,3.7
2016-12-27T03:59:43.915Z,3.7
2016-12-27T04:00:47.361Z,3.7
2016-12-27T04:01:50.306Z,3.7
2016-12-27T04:02:53.754Z,3.7
2016-12-27T04:03:56.700Z,3.7
2016-12-27T04:05:00.215Z,3.7
2016-12-27T04:06:03.161Z,3.7
2016-12-27T04:07:06.610Z,3.8
2016-12-27T04:08:09.553Z,3.8
2016-12-27T04:09:12.995Z,3.8
2016-12-27T04:10:15.944Z,3.8
2016-12-27T04:12:22.819Z,3.8
2016-12-27T04:13:25.767Z,3.8
2016-12-27T04:14:29.213Z,3.8
2016-12-27T04:15:32.156Z,3.8
2016-12-27T04:16:35.635Z,3.8
2016-12-27T04:17:38.580Z,3.8
2016-12-27T04:18:42.034Z,3.8
2016-12-27T04:19:44.983Z,3.8
2016-12-27T04:21:51.345Z,3.8
2016-12-27T04:22:54.792Z,3.8
2016-12-27T04:23:58.236Z,3.8
2016-12-27T04:25:01.179Z,3.8
2016-12-27T04:26:04.621Z,3.8
2016-12-27T04:27:07.563Z,3.8
2016-12-27T04:28:11.019Z,3.8
2016-12-27T04:29:13.963Z,3.8
2016-12-27T04:30:17.480Z,3.8
2016-12-27T04:31:20.420Z,3.8
2016-12-27T04:32:23.864Z,3.8
2016-12-27T04:33:26.809Z,3.8
2016-12-27T04:34:30.260Z,3.8
2016-12-27T04:35:33.214Z,3.8
2016-12-27T04:36:36.662Z,3.8
2016-12-27T04:37:40.115Z,3.8
2016-12-27T04:38:43.058Z,3.8
2016-12-27T04:39:46.509Z,3.8
2016-12-27T04:40:49.454Z,3.8
2016-12-27T04:41:52.900Z,3.8
2016-12-27T04:42:55.850Z,3.8
2016-12-27T04:43:59.304Z,3.8
2016-12-27T04:45:02.249Z,3.8
2016-12-27T04:46:05.698Z,3.8
2016-12-27T04:47:09.150Z,3.8
2016-12-27T04:48:12.093Z,3.8
2016-12-27T04:49:15.538Z,3.8
2016-12-27T04:50:18.483Z,3.8
2016-12-27T04:51:21.926Z,3.8
2016-12-27T04:52:24.873Z,3.8
2016-12-27T04:53:28.324Z,3.8
2016-12-27T04:54:31.269Z,3.8
2016-12-27T04:55:34.716Z,3.8
2016-12-27T04:56:38.160Z,3.8
2016-12-27T04:57:41.136Z,3.8
2016-12-27T04:58:44.590Z,3.8
2016-12-27T04:59:47.535Z,3.8
2016-12-27T05:00:50.982Z,3.8
2016-12-27T05:01:53.944Z,3.8
2016-12-27T05:02:57.397Z,3.8
2016-12-27T05:04:00.345Z,3.8
2016-12-27T05:05:03.796Z,3.8
2016-12-27T05:06:07.247Z,3.8
2016-12-27T05:07:10.199Z,3.8
2016-12-27T05:08:13.649Z,3.8
2016-12-27T05:09:16.598Z,3.8
2016-12-27T05:10:20.049Z,3.8
2016-12-27T05:11:22.989Z,3.8
2016-12-27T05:12:26.444Z,3.8
2016-12-27T05:13:29.390Z,3.8
2016-12-27T05:14:33.056Z,3.8
2016-12-27T05:15:35.999Z,3.8
2016-12-27T05:16:39.451Z,3.8
2016-12-27T05:17:42.397Z,3.8
2016-12-27T05:18:45.842Z,3.8
2016-12-27T05:19:48.789Z,3.8
2016-12-27T05:22:58.566Z,3.8
2016-12-27T05:24:02.017Z,3.7
2016-12-27T05:25:04.957Z,3.7
2016-12-27T05:26:08.405Z,3.7
2016-12-27T05:27:11.494Z,3.7
2016-12-27T05:28:14.951Z,3.7
2016-12-27T05:29:17.903Z,3.7
2016-12-27T05:30:21.351Z,3.7
2016-12-27T05:31:24.293Z,3.7
2016-12-27T05:32:27.743Z,3.7
2016-12-27T05:33:30.691Z,3.6
2016-12-27T05:34:34.137Z,3.7
2016-12-27T05:35:37.582Z,3.7
2016-12-27T05:36:40.524Z,3.7
2016-12-27T05:37:43.605Z,3.6
2016-12-27T05:38:47.059Z,3.7
2016-12-27T05:39:50.009Z,3.7
2016-12-27T05:40:53.454Z,3.7
2016-12-27T05:41:56.902Z,3.7
2016-12-27T05:42:59.849Z,3.7
2016-12-27T05:44:03.301Z,3.6
2016-12-27T05:45:06.314Z,3.7
2016-12-27T05:46:09.766Z,3.7
2016-12-27T05:47:12.716Z,3.7
2016-12-27T05:48:16.161Z,3.7
2016-12-27T05:49:19.112Z,3.7
2016-12-27T05:50:22.562Z,3.7
2016-12-27T05:51:25.508Z,3.7
2016-12-27T05:52:28.953Z,3.7
2016-12-27T05:53:31.898Z,3.7
2016-12-27T05:54:35.356Z,3.7
2016-12-27T05:55:38.803Z,3.7
2016-12-27T05:56:41.747Z,3.7
2016-12-27T05:57:45.200Z,3.7
2016-12-27T05:58:48.148Z,3.7
2016-12-27T05:59:51.597Z,3.7
2016-12-27T06:00:54.539Z,3.7
2016-12-27T06:01:57.988Z,3.7
2016-12-27T06:03:00.936Z,3.7
2016-12-27T06:04:04.386Z,3.7
2016-12-27T06:05:07.833Z,3.7
2016-12-27T06:06:10.775Z,3.7
2016-12-27T06:07:14.230Z,3.7
2016-12-27T06:08:17.177Z,3.7
2016-12-27T06:09:20.624Z,3.7
2016-12-27T06:10:23.569Z,3.7
2016-12-27T06:11:27.023Z,3.7
2016-12-27T06:12:29.970Z,3.7
2016-12-27T06:13:33.554Z,3.7
2016-12-27T06:14:36.497Z,3.7
2016-12-27T06:15:39.942Z,3.7
2016-12-27T06:16:42.885Z,3.7
2016-12-27T06:17:46.332Z,3.7
2016-12-27T06:18:49.280Z,3.7
2016-12-27T06:19:52.727Z,3.7
2016-12-27T06:20:56.175Z,3.7
2016-12-27T06:21:59.117Z,3.7
2016-12-27T06:23:02.564Z,3.8
2016-12-27T06:24:05.515Z,3.8
2016-12-27T06:25:08.967Z,3.8
2016-12-27T06:26:11.910Z,3.8
2016-12-27T06:27:15.363Z,3.8
2016-12-27T06:28:18.336Z,3.8
2016-12-27T06:29:21.847Z,3.8
2016-12-27T06:30:24.794Z,3.8
2016-12-27T06:31:28.276Z,3.8
2016-12-27T06:32:31.220Z,3.8
2016-12-27T06:33:34.673Z,3.8
2016-12-27T06:34:38.120Z,3.8
2016-12-27T06:35:41.070Z,3.8
2016-12-27T06:36:44.257Z,3.8
2016-12-27T06:37:47.516Z,3.8
2016-12-27T06:38:50.607Z,3.8
2016-12-27T06:39:54.225Z,3.8
2016-12-27T06:40:57.589Z,3.8
2016-12-27T06:42:00.751Z,3.8
2016-12-27T06:43:03.515Z,3.8
2016-12-27T06:44:06.974Z,3.8
2016-12-27T06:45:10.429Z,3.8
2016-12-27T06:46:13.372Z,3.8
2016-12-27T06:47:16.828Z,3.8
2016-12-27T06:48:19.776Z,3.8
2016-12-27T06:49:23.232Z,3.8
2016-12-27T06:51:29.589Z,3.8
2016-12-27T06:52:33.039Z,3.8
2016-12-27T06:53:35.983Z,3.8
2016-12-27T06:54:39.432Z,3.8
2016-12-27T06:55:42.376Z,3.8
2016-12-27T06:56:45.977Z,3.8
2016-12-27T06:57:48.923Z,3.8
2016-12-27T06:58:52.380Z,3.8
2016-12-27T06:59:55.399Z,3.8
2016-12-27T07:02:01.763Z,3.8
2016-12-27T07:03:05.213Z,3.8
2016-12-27T07:04:08.163Z,3.8
2016-12-27T07:05:11.609Z,3.8
2016-12-27T07:06:14.553Z,3.8
2016-12-27T07:07:18.004Z,3.8
2016-12-27T07:09:24.368Z,3.8
2016-12-27T07:10:27.447Z,3.8
2016-12-27T07:11:30.896Z,3.8
2016-12-27T07:12:34.355Z,3.8
2016-12-27T07:13:37.296Z,3.8
2016-12-27T07:14:40.747Z,3.8
2016-12-27T07:15:43.695Z,3.8
2016-12-27T07:17:50.054Z,3.8
2016-12-27T07:18:53.505Z,3.8
2016-12-27T07:19:56.952Z,3.7
2016-12-27T07:20:59.898Z,3.8
2016-12-27T07:22:03.345Z,3.8
2016-12-27T07:23:06.292Z,3.8
2016-12-27T07:24:09.749Z,3.8
2016-12-27T07:25:12.699Z,3.8
2016-12-27T07:26:16.154Z,3.8
2016-12-27T07:27:19.105Z,3.8
2016-12-27T07:28:22.554Z,3.8
2016-12-27T07:29:25.497Z,3.8
2016-12-27T07:30:28.949Z,3.8
2016-12-27T07:31:32.393Z,3.8
2016-12-27T07:32:35.338Z,3.8
2016-12-27T07:33:38.792Z,3.8
2016-12-27T07:34:41.738Z,3.8
2016-12-27T07:35:45.184Z,3.8
2016-12-27T07:36:48.132Z,3.8
2016-12-27T07:37:51.580Z,3.8
2016-12-27T07:38:55.031Z,3.8
2016-12-27T07:39:57.976Z,3.8
2016-12-27T07:41:01.422Z,3.8
2016-12-27T07:42:04.373Z,3.8
2016-12-27T07:43:07.823Z,3.8
2016-12-27T07:44:10.764Z,3.8
2016-12-27T07:45:14.215Z,3.8
2016-12-27T07:46:17.169Z,3.8
2016-12-27T07:47:20.616Z,3.8
2016-12-27T07:48:24.066Z,3.9
2016-12-27T07:49:27.011Z,3.9
2016-12-27T07:50:30.467Z,4
2016-12-27T07:51:33.412Z,3.9
2016-12-27T07:52:36.868Z,4
2016-12-27T07:53:39.811Z,3.9
2016-12-27T07:54:43.255Z,3.9
2016-12-27T07:55:46.708Z,3.9
2016-12-27T07:56:49.652Z,3.9
2016-12-27T07:57:53.104Z,3.9
2016-12-27T07:58:56.051Z,3.9
2016-12-27T07:59:59.497Z,3.9
2016-12-27T08:01:02.442Z,3.9
2016-12-27T08:02:05.636Z,3.9
2016-12-27T08:03:09.089Z,3.9
2016-12-27T08:04:12.537Z,3.8
2016-12-27T08:05:15.546Z,3.9
2016-12-27T08:06:18.997Z,3.9
2016-12-27T08:07:21.949Z,3.9
2016-12-27T08:08:25.399Z,3.9
2016-12-27T08:09:28.342Z,3.9
2016-12-27T08:10:31.794Z,3.9
2016-12-27T08:11:34.745Z,3.9
2016-12-27T08:12:38.198Z,3.9
2016-12-27T08:13:41.646Z,3.9
2016-12-27T08:14:44.593Z,3.9
2016-12-27T08:15:48.038Z,3.9
2016-12-27T08:16:50.986Z,4
2016-12-27T08:17:54.432Z,4
2016-12-27T08:18:57.378Z,4
2016-12-27T08:20:00.825Z,4
2016-12-27T08:21:04.410Z,4
2016-12-27T08:22:07.353Z,4
2016-12-27T08:23:10.305Z,4
2016-12-27T08:24:13.759Z,4
2016-12-27T08:25:17.345Z,4
2016-12-27T08:26:20.292Z,4
2016-12-27T08:27:23.240Z,4
2016-12-27T08:28:26.687Z,4
2016-12-27T08:29:30.138Z,4
2016-12-27T08:30:33.085Z,4
2016-12-27T08:31:36.531Z,4
2016-12-27T08:33:42.895Z,4
2016-12-27T08:34:45.845Z,4
2016-12-27T08:35:49.298Z,4
2016-12-27T08:36:52.749Z,4
2016-12-27T08:37:55.694Z,4
2016-12-27T08:38:59.145Z,4
2016-12-27T08:40:02.141Z,4
2016-12-27T08:41:05.590Z,4
2016-12-27T08:42:08.536Z,4
2016-12-27T08:43:11.982Z,4
2016-12-27T08:44:15.430Z,4
2016-12-27T08:45:18.379Z,4
2016-12-27T08:46:21.832Z,4
2016-12-27T08:47:24.776Z,4
2016-12-27T08:48:28.228Z,4
2016-12-27T08:49:31.171Z,4
2016-12-27T08:50:34.620Z,4
2016-12-27T08:51:38.066Z,4
2016-12-27T08:52:41.009Z,4
2016-12-27T08:53:44.458Z,4
2016-12-27T08:54:47.398Z,4
2016-12-27T08:55:50.842Z,4
2016-12-27T08:56:53.785Z,4
2016-12-27T08:57:57.235Z,4
2016-12-27T08:59:00.690Z,4
2016-12-27T09:00:03.766Z,4
2016-12-27T09:01:07.213Z,4
2016-12-27T09:02:10.161Z,4
2016-12-27T09:04:16.516Z,4
2016-12-27T09:05:19.966Z,4
2016-12-27T09:06:22.977Z,4.1
2016-12-27T09:07:26.426Z,4.1
2016-12-27T09:08:29.377Z,4.1
2016-12-27T09:09:32.829Z,4.1
2016-12-27T09:10:36.286Z,4.1
2016-12-27T09:11:39.234Z,4.1
2016-12-27T09:12:42.684Z,4.1
2016-12-27T09:13:45.631Z,4.1
2016-12-27T09:14:49.081Z,4.1
2016-12-27T09:16:55.444Z,4.1
2016-12-27T09:17:58.892Z,4.1
2016-12-27T09:19:01.839Z,4.1
2016-12-27T09:20:05.296Z,4.1
2016-12-27T09:21:08.249Z,4.1
2016-12-27T09:22:11.697Z,4.1
2016-12-27T09:23:15.153Z,4.1
2016-12-27T09:24:18.097Z,4.1
2016-12-27T09:25:21.547Z,4.1
2016-12-27T09:26:24.490Z,4.1
2016-12-27T09:27:27.938Z,4.1
2016-12-27T09:28:30.887Z,4.1
2016-12-27T09:29:34.337Z,4.1
2016-12-27T09:30:37.785Z,4.1
2016-12-27T09:31:40.729Z,4.1
2016-12-27T09:32:44.176Z,4.1
2016-12-27T09:33:47.120Z,4.1
2016-12-27T09:34:50.571Z,4.1
2016-12-27T09:35:54.018Z,4.1
2016-12-27T09:36:56.974Z,4.1
2016-12-27T09:38:00.427Z,4.1
2016-12-27T09:39:03.372Z,4.1
2016-12-27T09:40:06.819Z,4.1
2016-12-27T09:41:09.763Z,4.1
2016-12-27T09:42:13.212Z,4.1
2016-12-27T09:44:19.572Z,4.1
2016-12-27T09:45:23.023Z,4.1
2016-12-27T09:46:25.971Z,4.1
2016-12-27T09:47:29.421Z,4.1
2016-12-27T09:48:32.873Z,4.1
2016-12-27T09:49:35.815Z,4.1
2016-12-27T09:50:39.260Z,4.1
2016-12-27T09:51:42.211Z,4.1
2016-12-27T09:52:45.665Z,4.1
2016-12-27T09:53:49.113Z,4.1
2016-12-27T09:54:52.061Z,4.1
2016-12-27T09:55:55.511Z,4.1
2016-12-27T09:56:58.462Z,4.1
2016-12-27T09:58:01.909Z,4.2
2016-12-27T09:59:04.856Z,4.2
2016-12-27T10:00:08.302Z,4.2
2016-12-27T10:01:11.751Z,4.2
2016-12-27T10:02:14.695Z,4.2
2016-12-27T10:03:18.146Z,4.2
2016-12-27T10:04:21.098Z,4.2
2016-12-27T10:05:24.549Z,4.2
2016-12-27T10:06:28.001Z,4.2
2016-12-27T10:07:30.946Z,4.2
2016-12-27T10:08:34.398Z,4.2
2016-12-27T10:09:37.344Z,4.3
2016-12-27T10:10:40.790Z,4.3
2016-12-27T10:11:44.236Z,4.3
2016-12-27T10:12:47.184Z,4.3
2016-12-27T10:14:53.571Z,4.2
2016-12-27T10:15:57.018Z,4.3
2016-12-27T10:16:59.970Z,4.3
2016-12-27T10:18:03.421Z,4.2
2016-12-27T10:19:06.871Z,4.2
2016-12-27T10:20:09.816Z,4.2
2016-12-27T10:21:13.266Z,4.3
2016-12-27T10:22:16.214Z,4.3
2016-12-27T10:23:19.666Z,4.3
2016-12-27T10:24:23.121Z,4.3
2016-12-27T10:25:26.075Z,4.3
2016-12-27T10:26:29.541Z,4.3
2016-12-27T10:27:32.489Z,4.3
2016-12-27T10:28:35.974Z,4.3
2016-12-27T10:30:42.331Z,4.3
2016-12-27T10:31:45.777Z,4.3
2016-12-27T10:32:48.808Z,4.3
2016-12-27T10:33:52.257Z,4.3
2016-12-27T10:34:55.201Z,4.3
2016-12-27T10:35:58.646Z,4.4
2016-12-27T10:37:01.597Z,4.5
2016-12-27T10:38:05.182Z,4.5
2016-12-27T10:39:08.126Z,4.5
2016-12-27T10:40:11.575Z,4.6
2016-12-27T10:41:15.023Z,4.6
2016-12-27T10:42:17.968Z,4.5
2016-12-27T10:44:24.326Z,4.7
2016-12-27T10:45:27.778Z,4.7
2016-12-27T10:46:31.234Z,4.7
2016-12-27T10:47:34.185Z,4.8
2016-12-27T10:48:37.633Z,4.8
2016-12-27T10:49:40.579Z,4.8
2016-12-27T10:50:44.034Z,4.7
2016-12-27T10:51:47.489Z,4.6
2016-12-27T10:52:50.435Z,4.6
2016-12-27T10:53:53.881Z,4.6
2016-12-27T10:54:56.824Z,4.6
2016-12-27T10:56:00.275Z,4.6
2016-12-27T10:57:03.727Z,4.7
2016-12-27T10:58:06.678Z,4.8
2016-12-27T10:59:10.258Z,4.7
2016-12-27T11:00:13.207Z,4.7
2016-12-27T11:01:16.656Z,4.7
2016-12-27T11:02:19.606Z,4.7
2016-12-27T11:03:23.057Z,4.7
2016-12-27T11:04:26.508Z,4.8
2016-12-27T11:05:29.450Z,4.8
2016-12-27T11:06:32.962Z,4.8
2016-12-27T11:07:35.909Z,4.8
2016-12-27T11:08:39.354Z,4.8
2016-12-27T11:09:42.305Z,4.9
2016-12-27T11:10:45.757Z,4.9
2016-12-27T11:11:49.205Z,4.9
2016-12-27T11:12:52.155Z,4.9
2016-12-27T11:13:55.603Z,4.8
2016-12-27T11:14:58.553Z,4.8
2016-12-27T11:16:02.004Z,4.8
2016-12-27T11:17:05.453Z,4.8
2016-12-27T11:18:08.402Z,4.8
2016-12-27T11:19:11.854Z,4.8
2016-12-27T11:20:15.306Z,4.8
2016-12-27T11:21:18.254Z,4.9
2016-12-27T11:22:21.707Z,5
2016-12-27T11:23:24.653Z,5
2016-12-27T11:24:28.100Z,4.9
2016-12-27T11:25:31.547Z,4.8
2016-12-27T11:26:34.493Z,4.9
2016-12-27T11:28:40.849Z,5
2016-12-27T11:29:44.299Z,5
2016-12-27T11:30:47.745Z,5.1
2016-12-27T11:31:50.686Z,5
2016-12-27T11:33:57.547Z,5
2016-12-27T11:35:00.495Z,5
2016-12-27T11:36:03.950Z,5
2016-12-27T11:37:07.400Z,5
2016-12-27T11:38:10.345Z,5
2016-12-27T11:39:13.795Z,5
2016-12-27T11:40:16.740Z,5
2016-12-27T11:41:20.191Z,5
2016-12-27T11:42:23.644Z,5.1
2016-12-27T11:43:26.592Z,5.1
2016-12-27T11:44:30.042Z,5.1
2016-12-27T11:45:32.989Z,5.1
2016-12-27T11:46:36.437Z,5.1
2016-12-27T11:47:39.885Z,5
2016-12-27T11:48:42.832Z,5
2016-12-27T11:49:46.286Z,5
2016-12-27T11:50:49.733Z,5
2016-12-27T11:51:52.678Z,5
2016-12-27T11:52:56.126Z,5
2016-12-27T11:53:59.079Z,5
2016-12-27T11:55:02.530Z,5.1
2016-12-27T11:56:05.985Z,5
2016-12-27T11:57:08.933Z,5.1
2016-12-27T11:58:12.524Z,5.1
2016-12-27T11:59:15.476Z,5.1
2016-12-27T12:00:18.938Z,5.1
2016-12-27T12:01:21.886Z,5.2
2016-12-27T12:02:25.336Z,5.2
2016-12-27T12:03:28.789Z,5.3
2016-12-27T12:04:31.734Z,5.4
2016-12-27T12:05:35.185Z,5.4
2016-12-27T12:06:38.631Z,5.3
2016-12-27T12:07:41.583Z,5.2
2016-12-27T12:08:45.030Z,5.2
2016-12-27T12:09:48.001Z,5.2
2016-12-27T12:10:51.452Z,5.2
2016-12-27T12:11:54.898Z,5.2
2016-12-27T12:12:57.845Z,5.3
2016-12-27T12:14:01.300Z,5.3
2016-12-27T12:15:04.748Z,5.3
2016-12-27T12:16:07.697Z,5.1
2016-12-27T12:17:11.145Z,5.2
2016-12-27T12:18:14.089Z,5.2
2016-12-27T12:19:17.533Z,5.3
2016-12-27T12:20:20.977Z,5.2
2016-12-27T12:21:23.931Z,5.2
2016-12-27T12:22:27.379Z,5.3
2016-12-27T12:23:30.829Z,5.3
2016-12-27T12:24:33.771Z,5.4
2016-12-27T12:25:37.221Z,5.3
2016-12-27T12:26:40.177Z,5.3
2016-12-27T12:27:43.633Z,5.3
2016-12-27T12:28:47.082Z,5.3
2016-12-27T12:29:50.030Z,5.2
2016-12-27T12:30:53.512Z,5.2
2016-12-27T12:31:56.965Z,5.3
2016-12-27T12:32:59.917Z,5.3
2016-12-27T12:34:03.367Z,5.3
2016-12-27T12:35:06.314Z,5.3
2016-12-27T12:36:09.762Z,5.3
2016-12-27T12:37:13.210Z,5.3
2016-12-27T12:38:16.155Z,5.3
2016-12-27T12:39:19.603Z,5.3
2016-12-27T12:41:25.962Z,5.3
2016-12-27T12:42:29.412Z,5.3
2016-12-27T12:43:32.871Z,5.4
2016-12-27T12:44:35.814Z,5.4
2016-12-27T12:45:39.259Z,5.3
2016-12-27T12:46:42.210Z,5.5
2016-12-27T12:47:45.653Z,5.4
2016-12-27T12:48:49.099Z,5.4
2016-12-27T12:49:52.045Z,5.4
2016-12-27T12:50:55.494Z,5.4
2016-12-27T12:53:01.861Z,5.3
2016-12-27T12:54:05.321Z,5.3
2016-12-27T12:56:11.680Z,5.3
2016-12-27T12:57:15.132Z,5.3
2016-12-27T12:58:18.593Z,5.3
2016-12-27T12:59:21.568Z,5.3
2016-12-27T13:00:25.029Z,5.4
2016-12-27T13:01:27.973Z,5.4
2016-12-27T13:02:31.418Z,5.4
2016-12-27T13:04:37.778Z,5.4
2016-12-27T13:05:41.233Z,5.4
2016-12-27T13:06:44.683Z,5.5
2016-12-27T13:07:47.629Z,5.4
2016-12-27T13:08:51.076Z,5.4
2016-12-27T13:09:54.522Z,5.5
2016-12-27T13:10:57.468Z,5.5
2016-12-27T13:12:00.920Z,5.5
2016-12-27T13:13:03.933Z,5.5
2016-12-27T13:15:10.800Z,5.5
2016-12-27T13:16:13.742Z,5.5
2016-12-27T13:17:17.193Z,5.5
2016-12-27T13:18:20.641Z,5.5
2016-12-27T13:19:23.591Z,5.4
2016-12-27T13:20:27.042Z,5.4
2016-12-27T13:21:30.492Z,5.4
2016-12-27T13:22:33.435Z,5.3
2016-12-27T13:24:40.296Z,5.5
2016-12-27T13:25:43.241Z,5.5
2016-12-27T13:26:46.694Z,5.5
2016-12-27T13:27:49.645Z,5.5
2016-12-27T13:28:53.093Z,5.5
2016-12-27T13:29:56.544Z,5.5
2016-12-27T13:30:59.489Z,5.5
2016-12-27T13:32:02.935Z,5.5
2016-12-27T13:33:06.382Z,5.5
2016-12-27T13:34:09.334Z,5.5
2016-12-27T13:35:12.780Z,5.5
2016-12-27T13:36:16.228Z,5.5
2016-12-27T13:37:19.172Z,5.5
2016-12-27T13:38:22.622Z,5.5
2016-12-27T13:39:25.573Z,5.6
2016-12-27T13:40:29.020Z,5.5
2016-12-27T13:41:32.469Z,5.5
2016-12-27T13:42:35.410Z,5.5
2016-12-27T13:43:38.859Z,5.5
2016-12-27T13:44:42.313Z,5.4
2016-12-27T13:45:45.263Z,5.4
2016-12-27T13:46:48.714Z,5.4
2016-12-27T13:47:52.162Z,5.5
2016-12-27T13:48:55.107Z,5.5
2016-12-27T13:49:58.556Z,5.5
2016-12-27T13:52:04.917Z,5.5
2016-12-27T13:53:08.366Z,5.5
2016-12-27T13:54:11.312Z,5.5
2016-12-27T13:55:14.764Z,5.5
2016-12-27T13:56:18.215Z,5.5
2016-12-27T13:57:21.159Z,5.5
2016-12-27T13:58:24.607Z,5.5
2016-12-27T13:59:28.058Z,5.5
2016-12-27T14:00:31.004Z,5.5
2016-12-27T14:01:34.450Z,5.5
2016-12-27T14:02:37.899Z,5.5
2016-12-27T14:03:40.843Z,5.5
2016-12-27T14:04:44.296Z,5.5
2016-12-27T14:05:47.242Z,5.5
2016-12-27T14:06:50.689Z,5.5
2016-12-27T14:07:54.143Z,5.5
2016-12-27T14:08:57.092Z,5.6
2016-12-27T14:10:00.542Z,5.5
2016-12-27T14:11:03.991Z,5.5
2016-12-27T14:12:06.932Z,5.5
2016-12-27T14:13:10.381Z,5.5
2016-12-27T14:14:13.358Z,5.5
2016-12-27T14:15:16.809Z,5.4
2016-12-27T14:16:20.259Z,5.5
2016-12-27T14:17:23.203Z,5.5
2016-12-27T14:18:26.652Z,5.5
2016-12-27T14:19:30.109Z,5.5
2016-12-27T14:20:33.059Z,5.5
2016-12-27T14:23:42.834Z,5.5
2016-12-27T14:24:46.277Z,5.5
2016-12-27T14:25:49.726Z,5.5
2016-12-27T14:26:52.668Z,5.5
2016-12-27T14:27:56.114Z,5.5
2016-12-27T14:28:59.061Z,5.6
2016-12-27T14:30:02.510Z,5.6
2016-12-27T14:31:06.023Z,5.5
2016-12-27T14:32:08.972Z,5.5
2016-12-27T14:33:12.424Z,5.5
2016-12-27T14:34:15.873Z,5.5
2016-12-27T14:35:18.824Z,5.5
2016-12-27T14:36:22.273Z,5.5
2016-12-27T14:37:25.217Z,5.6
2016-12-27T14:38:28.667Z,5.5
2016-12-27T14:39:32.118Z,5.5
2016-12-27T14:40:35.065Z,5.5
2016-12-27T14:41:38.515Z,5.5
2016-12-27T14:42:41.963Z,5.5
2016-12-27T14:43:44.913Z,5.5
2016-12-27T14:44:48.366Z,5.5
2016-12-27T14:45:51.309Z,5.5
2016-12-27T14:46:54.761Z,5.6
2016-12-27T14:47:58.215Z,5.6
2016-12-27T14:49:01.167Z,5.6
2016-12-27T14:50:04.612Z,5.6
2016-12-27T14:51:07.689Z,5.6
2016-12-27T14:52:11.137Z,5.6
2016-12-27T14:53:14.583Z,5.6
2016-12-27T14:54:17.528Z,5.6
2016-12-27T14:55:20.975Z,5.6
2016-12-27T14:56:24.428Z,5.6
2016-12-27T14:57:27.378Z,5.6
2016-12-27T14:58:30.827Z,5.6
2016-12-27T14:59:33.773Z,5.6
2016-12-27T15:00:37.223Z,5.5
2016-12-27T15:01:40.671Z,5.6
2016-12-27T15:02:43.615Z,5.6
2016-12-27T15:03:47.065Z,5.6
2016-12-27T15:04:50.652Z,5.6
2016-12-27T15:05:53.597Z,5.5
2016-12-27T15:07:59.954Z,5.5
2016-12-27T15:09:03.400Z,5.5
2016-12-27T15:10:06.855Z,5.5
2016-12-27T15:11:09.801Z,5.6
2016-12-27T15:12:13.251Z,5.6